URO67A EGHH-EDDV
Flight info
| Callsign | URO67A |
|---|---|
| Flight time | 1h 9m |
| Altitude | 41000 |
| Route | OCK UM185 KOBBI M197 REDFA DCT TACHA DCT PAM DCT ATPAQ T463 NIE |
| Aircraft | A346/H-SDE2E3FGHIJ3J4J5M1RWXY/LB1D1 |
Departure
| Time | 2026-05-08 17:46 |
|---|---|
| Airport | Bournemouth Airport (EGHH) |
Arrival
| Time | 2026-05-08 18:55 |
|---|---|
| Airport | Hannover Airport (EDDV) |
| Time | Latitude | Longitude | Altitude | Speed | Heading |
|---|---|---|---|---|---|
| 2026-05-08 16:52 | 50.78661 | -1.84129 | 48 ft | 0 kts | 208° |
| 2026-05-08 17:34 | 50.78645 | -1.84135 | 54 ft | 12 kts | 181° |
| 2026-05-08 17:35 | 50.78546 | -1.84097 | 53 ft | 14 kts | 165° |
| 2026-05-08 17:35 | 50.78443 | -1.84056 | 51 ft | 17 kts | 165° |
| 2026-05-08 17:35 | 50.78312 | -1.84001 | 53 ft | 22 kts | 165° |
| 2026-05-08 17:35 | 50.78237 | -1.83970 | 53 ft | 0 kts | 166° |
| 2026-05-08 17:39 | 50.78210 | -1.83959 | 50 ft | 7 kts | 165° |
| 2026-05-08 17:39 | 50.78143 | -1.83932 | 52 ft | 12 kts | 165° |
| 2026-05-08 17:40 | 50.78057 | -1.83973 | 50 ft | 17 kts | 249° |
| 2026-05-08 17:40 | 50.78019 | -1.84181 | 51 ft | 22 kts | 256° |
| 2026-05-08 17:40 | 50.77977 | -1.84434 | 52 ft | 26 kts | 255° |
| 2026-05-08 17:40 | 50.77936 | -1.84680 | 52 ft | 24 kts | 255° |
| 2026-05-08 17:41 | 50.77890 | -1.84959 | 52 ft | 27 kts | 255° |
| 2026-05-08 17:41 | 50.77840 | -1.85260 | 50 ft | 30 kts | 255° |
| 2026-05-08 17:41 | 50.77785 | -1.85588 | 49 ft | 27 kts | 255° |
| 2026-05-08 17:41 | 50.77719 | -1.85724 | 51 ft | 12 kts | 226° |
| 2026-05-08 17:42 | 50.77735 | -1.85778 | 47 ft | 5 kts | 4° |
| 2026-05-08 17:42 | 50.77737 | -1.85778 | 47 ft | 0 kts | 8° |
| 2026-05-08 17:43 | 50.77750 | -1.85767 | 46 ft | 6 kts | 40° |
| 2026-05-08 17:43 | 50.77769 | -1.85685 | 53 ft | 1 kts | 75° |
| 2026-05-08 17:45 | 50.77805 | -1.85469 | 52 ft | 59 kts | 75° |
| 2026-05-08 17:45 | 50.77982 | -1.84398 | 49 ft | 136 kts | 75° |
| 2026-05-08 17:45 | 50.78256 | -1.82740 | 472 ft | 163 kts | 81° |
| 2026-05-08 17:46 | 50.78485 | -1.80995 | 1423 ft | 160 kts | 82° |
| 2026-05-08 17:46 | 50.78695 | -1.79243 | 2294 ft | 164 kts | 81° |
| 2026-05-08 17:46 | 50.79194 | -1.77562 | 3067 ft | 180 kts | 56° |
| 2026-05-08 17:46 | 50.80036 | -1.75977 | 3733 ft | 196 kts | 55° |
| 2026-05-08 17:47 | 50.80904 | -1.74148 | 4396 ft | 213 kts | 56° |
| 2026-05-08 17:47 | 50.81791 | -1.72139 | 5049 ft | 230 kts | 58° |
| 2026-05-08 17:47 | 50.82723 | -1.69921 | 5602 ft | 252 kts | 59° |
| 2026-05-08 17:47 | 50.83689 | -1.67530 | 6211 ft | 271 kts | 59° |
| 2026-05-08 17:48 | 50.84712 | -1.64954 | 7033 ft | 280 kts | 60° |
| 2026-05-08 17:48 | 50.85772 | -1.62274 | 8024 ft | 285 kts | 60° |
| 2026-05-08 17:48 | 50.86824 | -1.59582 | 9055 ft | 289 kts | 59° |
| 2026-05-08 17:48 | 50.87896 | -1.56836 | 10110 ft | 293 kts | 59° |
| 2026-05-08 17:49 | 50.88985 | -1.54039 | 10948 ft | 305 kts | 60° |
| 2026-05-08 17:49 | 50.90127 | -1.51085 | 11581 ft | 323 kts | 59° |
| 2026-05-08 17:49 | 50.91340 | -1.47954 | 12178 ft | 343 kts | 60° |
| 2026-05-08 17:49 | 50.92619 | -1.44638 | 12815 ft | 362 kts | 59° |
| 2026-05-08 17:50 | 50.93950 | -1.41191 | 13440 ft | 380 kts | 59° |
| 2026-05-08 17:50 | 50.95352 | -1.37555 | 14288 ft | 390 kts | 59° |
| 2026-05-08 17:50 | 50.96779 | -1.33862 | 15319 ft | 394 kts | 59° |
| 2026-05-08 17:50 | 50.98240 | -1.30075 | 16349 ft | 399 kts | 60° |
| 2026-05-08 17:51 | 50.99697 | -1.26288 | 17342 ft | 405 kts | 60° |
| 2026-05-08 17:51 | 51.01150 | -1.22503 | 18316 ft | 411 kts | 60° |
| 2026-05-08 17:51 | 51.02647 | -1.18591 | 19134 ft | 417 kts | 60° |
| 2026-05-08 17:51 | 51.04162 | -1.14619 | 19950 ft | 423 kts | 60° |
| 2026-05-08 17:52 | 51.05704 | -1.10569 | 20776 ft | 429 kts | 59° |
| 2026-05-08 17:52 | 51.07262 | -1.06477 | 21593 ft | 435 kts | 59° |
| 2026-05-08 17:52 | 51.10440 | -0.98117 | 23220 ft | 446 kts | 59° |
| 2026-05-08 17:53 | 51.12060 | -0.93845 | 23966 ft | 452 kts | 58° |
| 2026-05-08 17:53 | 51.13693 | -0.89524 | 24652 ft | 456 kts | 58° |
| 2026-05-08 17:53 | 51.15347 | -0.85151 | 25361 ft | 461 kts | 58° |
| 2026-05-08 17:53 | 51.17035 | -0.80682 | 26012 ft | 467 kts | 58° |
| 2026-05-08 17:54 | 51.18737 | -0.76171 | 26668 ft | 473 kts | 57° |
| 2026-05-08 17:54 | 51.20443 | -0.71637 | 27292 ft | 478 kts | 57° |
| 2026-05-08 17:54 | 51.22158 | -0.67067 | 27927 ft | 484 kts | 57° |
| 2026-05-08 17:54 | 51.23926 | -0.62345 | 28552 ft | 489 kts | 57° |
| 2026-05-08 17:55 | 51.25711 | -0.57626 | 29185 ft | 494 kts | 56° |
| 2026-05-08 17:55 | 51.27697 | -0.53137 | 29817 ft | 496 kts | 49° |
| 2026-05-08 17:55 | 51.29950 | -0.48978 | 30628 ft | 493 kts | 43° |
| 2026-05-08 17:55 | 51.32425 | -0.45226 | 31497 ft | 487 kts | 37° |
| 2026-05-08 17:56 | 51.35083 | -0.41922 | 32418 ft | 480 kts | 31° |
| 2026-05-08 17:56 | 51.37907 | -0.39065 | 33294 ft | 474 kts | 25° |
| 2026-05-08 17:56 | 51.40826 | -0.36660 | 34118 ft | 469 kts | 21° |
| 2026-05-08 17:56 | 51.43773 | -0.34444 | 34845 ft | 467 kts | 20° |
| 2026-05-08 17:57 | 51.46719 | -0.32271 | 35490 ft | 466 kts | 21° |
| 2026-05-08 17:57 | 51.49682 | -0.30069 | 36102 ft | 466 kts | 21° |
| 2026-05-08 17:57 | 51.52626 | -0.27853 | 36679 ft | 467 kts | 21° |
| 2026-05-08 17:57 | 51.55560 | -0.25622 | 37246 ft | 467 kts | 21° |
| 2026-05-08 17:58 | 51.58441 | -0.23419 | 37795 ft | 467 kts | 22° |
| 2026-05-08 17:58 | 51.61321 | -0.20991 | 38354 ft | 470 kts | 28° |
| 2026-05-08 17:58 | 51.63993 | -0.17904 | 38829 ft | 474 kts | 37° |
| 2026-05-08 17:58 | 51.66404 | -0.14136 | 39197 ft | 477 kts | 46° |
| 2026-05-08 17:59 | 51.68403 | -0.09938 | 39520 ft | 480 kts | 55° |
| 2026-05-08 17:59 | 51.69942 | -0.05534 | 39782 ft | 484 kts | 64° |
| 2026-05-08 17:59 | 51.71159 | -0.00444 | 40027 ft | 487 kts | 72° |
| 2026-05-08 17:59 | 51.72030 | 0.04856 | 40314 ft | 489 kts | 75° |
| 2026-05-08 18:00 | 51.72767 | 0.09829 | 40587 ft | 489 kts | 76° |
| 2026-05-08 18:00 | 51.74352 | 0.20599 | 41080 ft | 494 kts | 76° |
| 2026-05-08 18:00 | 51.75181 | 0.26113 | 41109 ft | 495 kts | 76° |
| 2026-05-08 18:01 | 51.76832 | 0.36959 | 41119 ft | 496 kts | 76° |
| 2026-05-08 18:01 | 51.78459 | 0.47649 | 41109 ft | 478 kts | 76° |
| 2026-05-08 18:02 | 51.79770 | 0.56315 | 41112 ft | 471 kts | 76° |
| 2026-05-08 18:02 | 51.81586 | 0.68344 | 41125 ft | 470 kts | 75° |
| 2026-05-08 18:03 | 51.83173 | 0.78608 | 41122 ft | 470 kts | 75° |
| 2026-05-08 18:03 | 51.84937 | 0.88799 | 41121 ft | 470 kts | 73° |
| 2026-05-08 18:04 | 51.86794 | 0.98950 | 41128 ft | 470 kts | 73° |
| 2026-05-08 18:04 | 51.88636 | 1.09086 | 41131 ft | 468 kts | 73° |
| 2026-05-08 18:05 | 51.89339 | 1.12972 | 41128 ft | 468 kts | 73° |
| 2026-05-08 18:06 | 51.89774 | 1.15390 | 41137 ft | 465 kts | 73° |
| 2026-05-08 18:08 | 51.90809 | 1.21146 | 41131 ft | 468 kts | 73° |
| 2026-05-08 18:09 | 51.92621 | 1.31280 | 41136 ft | 468 kts | 73° |
| 2026-05-08 18:09 | 51.94426 | 1.41425 | 41134 ft | 468 kts | 73° |
| 2026-05-08 18:10 | 51.96219 | 1.51563 | 41131 ft | 467 kts | 73° |
| 2026-05-08 18:10 | 51.98002 | 1.61708 | 41135 ft | 467 kts | 73° |
| 2026-05-08 18:11 | 51.99747 | 1.71876 | 41136 ft | 467 kts | 75° |
| 2026-05-08 18:11 | 52.01333 | 1.82112 | 41135 ft | 467 kts | 75° |
| 2026-05-08 18:12 | 52.02903 | 1.92374 | 41139 ft | 467 kts | 75° |
| 2026-05-08 18:12 | 52.04481 | 2.02669 | 41138 ft | 468 kts | 75° |
| 2026-05-08 18:13 | 52.06048 | 2.12921 | 41142 ft | 468 kts | 75° |
| 2026-05-08 18:13 | 52.07610 | 2.23199 | 41141 ft | 468 kts | 75° |
| 2026-05-08 18:14 | 52.09151 | 2.33413 | 41146 ft | 468 kts | 75° |
| 2026-05-08 18:14 | 52.10704 | 2.43781 | 41141 ft | 468 kts | 76° |
| 2026-05-08 18:15 | 52.12429 | 2.54001 | 41137 ft | 468 kts | 72° |
| 2026-05-08 18:15 | 52.14367 | 2.64147 | 41141 ft | 469 kts | 72° |
| 2026-05-08 18:16 | 52.16305 | 2.74300 | 41143 ft | 469 kts | 72° |
| 2026-05-08 18:16 | 52.18226 | 2.84468 | 41148 ft | 469 kts | 72° |
| 2026-05-08 18:17 | 52.20136 | 2.94642 | 41143 ft | 469 kts | 72° |
| 2026-05-08 18:17 | 52.22030 | 3.04792 | 41141 ft | 465 kts | 72° |
| 2026-05-08 18:18 | 52.23891 | 3.14830 | 41139 ft | 465 kts | 72° |
| 2026-05-08 18:18 | 52.25427 | 3.25153 | 41151 ft | 465 kts | 79° |
| 2026-05-08 18:19 | 52.26205 | 3.35595 | 41146 ft | 466 kts | 85° |
| 2026-05-08 18:19 | 52.26708 | 3.46151 | 41146 ft | 466 kts | 85° |
| 2026-05-08 18:20 | 52.27201 | 3.56717 | 41142 ft | 466 kts | 85° |
| 2026-05-08 18:20 | 52.27695 | 3.67304 | 41142 ft | 467 kts | 85° |
| 2026-05-08 18:21 | 52.28184 | 3.77883 | 41142 ft | 467 kts | 85° |
| 2026-05-08 18:21 | 52.28664 | 3.88470 | 41143 ft | 467 kts | 85° |
| 2026-05-08 18:22 | 52.29137 | 3.99117 | 41139 ft | 472 kts | 85° |
| 2026-05-08 18:22 | 52.29614 | 4.10039 | 41144 ft | 488 kts | 85° |
| 2026-05-08 18:23 | 52.30092 | 4.21249 | 41133 ft | 496 kts | 86° |
| 2026-05-08 18:23 | 52.30562 | 4.32530 | 41135 ft | 497 kts | 86° |
| 2026-05-08 18:24 | 52.31022 | 4.43815 | 41129 ft | 497 kts | 86° |
| 2026-05-08 18:24 | 52.31471 | 4.55109 | 41129 ft | 497 kts | 86° |
| 2026-05-08 18:25 | 52.31909 | 4.66403 | 41116 ft | 497 kts | 86° |
| 2026-05-08 18:25 | 52.32336 | 4.77688 | 41145 ft | 497 kts | 86° |
| 2026-05-08 18:26 | 52.32753 | 4.89007 | 41145 ft | 497 kts | 86° |
| 2026-05-08 18:26 | 52.33093 | 4.98490 | 41138 ft | 497 kts | 86° |
| 2026-05-08 18:27 | 52.33449 | 5.07903 | 41133 ft | 497 kts | 84° |
| 2026-05-08 18:27 | 52.34458 | 5.21032 | 41134 ft | 497 kts | 81° |
| 2026-05-08 18:28 | 52.35419 | 5.32163 | 41139 ft | 497 kts | 81° |
| 2026-05-08 18:28 | 52.36377 | 5.43453 | 41144 ft | 497 kts | 82° |
| 2026-05-08 18:29 | 52.37313 | 5.54679 | 41144 ft | 497 kts | 82° |
| 2026-05-08 18:29 | 52.38236 | 5.65900 | 41123 ft | 497 kts | 82° |
| 2026-05-08 18:30 | 52.39149 | 5.77146 | 41130 ft | 497 kts | 82° |
| 2026-05-08 18:30 | 52.40045 | 5.88321 | 41128 ft | 497 kts | 82° |
| 2026-05-08 18:31 | 52.40935 | 5.99568 | 41129 ft | 497 kts | 82° |
| 2026-05-08 18:31 | 52.41817 | 6.10844 | 41131 ft | 498 kts | 82° |
| 2026-05-08 18:32 | 52.42687 | 6.22109 | 41136 ft | 498 kts | 82° |
| 2026-05-08 18:32 | 52.43547 | 6.33383 | 41136 ft | 498 kts | 82° |
| 2026-05-08 18:33 | 52.44395 | 6.44658 | 40836 ft | 499 kts | 82° |
| 2026-05-08 18:33 | 52.44817 | 6.50323 | 40235 ft | 500 kts | 82° |
| 2026-05-08 18:33 | 52.45235 | 6.55991 | 39660 ft | 499 kts | 82° |
| 2026-05-08 18:34 | 52.45650 | 6.61644 | 39099 ft | 499 kts | 82° |
| 2026-05-08 18:34 | 52.46063 | 6.67304 | 38484 ft | 499 kts | 82° |
| 2026-05-08 18:34 | 52.46473 | 6.72962 | 37791 ft | 498 kts | 82° |
| 2026-05-08 18:34 | 52.46880 | 6.78618 | 37123 ft | 497 kts | 82° |
| 2026-05-08 18:35 | 52.47282 | 6.84246 | 36473 ft | 496 kts | 82° |
| 2026-05-08 18:35 | 52.47682 | 6.89875 | 35844 ft | 495 kts | 82° |
| 2026-05-08 18:35 | 52.48077 | 6.95475 | 35263 ft | 492 kts | 82° |
| 2026-05-08 18:35 | 52.48469 | 7.01045 | 34801 ft | 487 kts | 82° |
| 2026-05-08 18:36 | 52.48857 | 7.06567 | 34152 ft | 484 kts | 82° |
| 2026-05-08 18:36 | 52.49239 | 7.12091 | 33468 ft | 481 kts | 82° |
| 2026-05-08 18:36 | 52.49617 | 7.17608 | 32775 ft | 477 kts | 82° |
| 2026-05-08 18:36 | 52.49986 | 7.23014 | 32112 ft | 476 kts | 82° |
| 2026-05-08 18:37 | 52.50355 | 7.28463 | 31463 ft | 478 kts | 82° |
| 2026-05-08 18:37 | 52.50720 | 7.33897 | 30830 ft | 479 kts | 82° |
| 2026-05-08 18:37 | 52.51084 | 7.39345 | 30207 ft | 480 kts | 83° |
| 2026-05-08 18:37 | 52.51447 | 7.44818 | 29487 ft | 481 kts | 83° |
| 2026-05-08 18:38 | 52.51807 | 7.50275 | 28782 ft | 479 kts | 83° |
| 2026-05-08 18:38 | 52.52163 | 7.55697 | 28092 ft | 474 kts | 83° |
| 2026-05-08 18:38 | 52.52511 | 7.61059 | 27435 ft | 469 kts | 83° |
| 2026-05-08 18:38 | 52.52857 | 7.66445 | 26768 ft | 465 kts | 83° |
| 2026-05-08 18:39 | 52.53194 | 7.71708 | 26123 ft | 461 kts | 83° |
| 2026-05-08 18:39 | 52.53525 | 7.76930 | 25496 ft | 456 kts | 83° |
| 2026-05-08 18:39 | 52.53852 | 7.82102 | 24889 ft | 453 kts | 83° |
| 2026-05-08 18:39 | 52.54174 | 7.87229 | 24297 ft | 449 kts | 83° |
| 2026-05-08 18:40 | 52.54492 | 7.92333 | 23705 ft | 446 kts | 84° |
| 2026-05-08 18:40 | 52.54804 | 7.97385 | 23006 ft | 443 kts | 84° |
| 2026-05-08 18:40 | 52.55111 | 8.02411 | 22327 ft | 439 kts | 84° |
| 2026-05-08 18:40 | 52.55414 | 8.07387 | 21710 ft | 435 kts | 84° |
| 2026-05-08 18:41 | 52.55711 | 8.12309 | 21194 ft | 429 kts | 84° |
| 2026-05-08 18:41 | 52.56004 | 8.17183 | 20675 ft | 426 kts | 84° |
| 2026-05-08 18:41 | 52.56293 | 8.22036 | 20171 ft | 423 kts | 84° |
| 2026-05-08 18:41 | 52.56578 | 8.26833 | 19669 ft | 420 kts | 84° |
| 2026-05-08 18:42 | 52.56860 | 8.31631 | 19177 ft | 417 kts | 84° |
| 2026-05-08 18:42 | 52.57137 | 8.36365 | 18699 ft | 414 kts | 84° |
| 2026-05-08 18:42 | 52.57411 | 8.41075 | 18188 ft | 412 kts | 84° |
| 2026-05-08 18:42 | 52.57680 | 8.45743 | 17649 ft | 408 kts | 84° |
| 2026-05-08 18:43 | 52.57944 | 8.50369 | 17118 ft | 404 kts | 84° |
| 2026-05-08 18:43 | 52.58205 | 8.54971 | 16593 ft | 401 kts | 84° |
| 2026-05-08 18:43 | 52.58462 | 8.59527 | 16077 ft | 398 kts | 84° |
| 2026-05-08 18:43 | 52.58715 | 8.64034 | 15575 ft | 394 kts | 84° |
| 2026-05-08 18:44 | 52.58965 | 8.68522 | 15073 ft | 391 kts | 84° |
| 2026-05-08 18:44 | 52.59210 | 8.72956 | 14589 ft | 387 kts | 84° |
| 2026-05-08 18:44 | 52.59451 | 8.77357 | 14092 ft | 384 kts | 84° |
| 2026-05-08 18:44 | 52.59690 | 8.81726 | 13574 ft | 381 kts | 84° |
| 2026-05-08 18:45 | 52.59925 | 8.86050 | 13031 ft | 378 kts | 84° |
| 2026-05-08 18:45 | 52.60156 | 8.90348 | 12529 ft | 373 kts | 84° |
| 2026-05-08 18:45 | 52.60379 | 8.94509 | 11923 ft | 353 kts | 85° |
| 2026-05-08 18:45 | 52.60313 | 8.98408 | 11469 ft | 331 kts | 103° |
| 2026-05-08 18:46 | 52.59415 | 9.01792 | 11038 ft | 312 kts | 126° |
| 2026-05-08 18:46 | 52.58075 | 9.04481 | 10625 ft | 296 kts | 132° |
| 2026-05-08 18:46 | 52.56576 | 9.06727 | 10185 ft | 290 kts | 147° |
| 2026-05-08 18:46 | 52.54830 | 9.08384 | 9467 ft | 289 kts | 152° |
| 2026-05-08 18:47 | 52.53040 | 9.09884 | 8688 ft | 288 kts | 153° |
| 2026-05-08 18:47 | 52.51248 | 9.11337 | 7913 ft | 286 kts | 154° |
| 2026-05-08 18:47 | 52.49466 | 9.12765 | 7156 ft | 284 kts | 154° |
| 2026-05-08 18:47 | 52.47689 | 9.14171 | 6419 ft | 282 kts | 154° |
| 2026-05-08 18:48 | 52.45923 | 9.15563 | 5623 ft | 281 kts | 154° |
| 2026-05-08 18:48 | 52.44172 | 9.16945 | 4837 ft | 278 kts | 152° |
| 2026-05-08 18:48 | 52.42675 | 9.18878 | 4011 ft | 272 kts | 126° |
| 2026-05-08 18:48 | 52.41923 | 9.21700 | 3315 ft | 264 kts | 97° |
| 2026-05-08 18:49 | 52.42118 | 9.24568 | 2978 ft | 246 kts | 71° |
| 2026-05-08 18:49 | 52.42779 | 9.27009 | 2999 ft | 221 kts | 65° |
| 2026-05-08 18:49 | 52.43472 | 9.29224 | 3010 ft | 217 kts | 64° |
| 2026-05-08 18:49 | 52.44173 | 9.31412 | 3043 ft | 216 kts | 64° |
| 2026-05-08 18:50 | 52.44846 | 9.33498 | 2993 ft | 203 kts | 64° |
| 2026-05-08 18:50 | 52.45503 | 9.35532 | 2982 ft | 201 kts | 64° |
| 2026-05-08 18:50 | 52.45969 | 9.37675 | 2972 ft | 199 kts | 79° |
| 2026-05-08 18:50 | 52.46159 | 9.39928 | 2977 ft | 199 kts | 86° |
| 2026-05-08 18:51 | 52.46216 | 9.42217 | 2972 ft | 199 kts | 90° |
| 2026-05-08 18:51 | 52.46185 | 9.44456 | 2947 ft | 189 kts | 93° |
| 2026-05-08 18:51 | 52.46121 | 9.46545 | 2771 ft | 177 kts | 94° |
| 2026-05-08 18:51 | 52.46056 | 9.48492 | 2512 ft | 165 kts | 94° |
| 2026-05-08 18:52 | 52.45998 | 9.50307 | 2263 ft | 153 kts | 94° |
| 2026-05-08 18:52 | 52.45947 | 9.52018 | 2048 ft | 141 kts | 94° |
| 2026-05-08 18:52 | 52.45900 | 9.53605 | 1866 ft | 138 kts | 94° |
| 2026-05-08 18:52 | 52.45854 | 9.55171 | 1704 ft | 137 kts | 94° |
| 2026-05-08 18:53 | 52.45809 | 9.56747 | 1549 ft | 137 kts | 94° |
| 2026-05-08 18:53 | 52.45763 | 9.58320 | 1367 ft | 136 kts | 94° |
| 2026-05-08 18:53 | 52.45719 | 9.59878 | 1180 ft | 136 kts | 94° |
| 2026-05-08 18:53 | 52.45674 | 9.61437 | 977 ft | 136 kts | 94° |
| 2026-05-08 18:54 | 52.45629 | 9.63014 | 761 ft | 135 kts | 95° |
| 2026-05-08 18:54 | 52.45586 | 9.64546 | 634 ft | 135 kts | 94° |
| 2026-05-08 18:54 | 52.45544 | 9.66088 | 412 ft | 135 kts | 94° |
| 2026-05-08 18:54 | 52.45498 | 9.67642 | 243 ft | 134 kts | 94° |
| 2026-05-08 18:55 | 52.45435 | 9.69926 | 197 ft | 47 kts | 92° |
| 2026-05-08 18:55 | 52.45421 | 9.70449 | 198 ft | 32 kts | 92° |
| 2026-05-08 18:55 | 52.45461 | 9.70664 | 202 ft | 19 kts | 15° |
| 2026-05-08 18:56 | 52.45533 | 9.70673 | 200 ft | 0 kts | 2° |
| 2026-05-08 18:56 | 52.45534 | 9.70673 | 200 ft | 0 kts | 2° |
| 2026-05-08 18:56 | 52.45535 | 9.70673 | 201 ft | 1 kts | 2° |
| 2026-05-08 18:57 | 52.45540 | 9.70673 | 202 ft | 0 kts | 2° |
| 2026-05-08 18:58 | 52.45549 | 9.70672 | 203 ft | 3 kts | 352° |
| 2026-05-08 18:58 | 52.45583 | 9.70548 | 196 ft | 21 kts | 272° |
| 2026-05-08 18:59 | 52.45590 | 9.70274 | 200 ft | 25 kts | 272° |
| 2026-05-08 18:59 | 52.45599 | 9.69983 | 209 ft | 24 kts | 272° |
| 2026-05-08 18:59 | 52.45605 | 9.69784 | 197 ft | 17 kts | 272° |
| 2026-05-08 18:59 | 52.45612 | 9.69542 | 199 ft | 22 kts | 272° |
| 2026-05-08 19:00 | 52.45616 | 9.69377 | 211 ft | 16 kts | 272° |
| 2026-05-08 19:00 | 52.45617 | 9.69337 | 206 ft | 0 kts | 272° |
| 2026-05-08 19:00 | 52.45618 | 9.69298 | 208 ft | 13 kts | 272° |
| 2026-05-08 19:01 | 52.45654 | 9.69149 | 199 ft | 16 kts | 344° |
| 2026-05-08 19:01 | 52.45772 | 9.69109 | 200 ft | 19 kts | 323° |
| 2026-05-08 19:01 | 52.45884 | 9.68970 | 201 ft | 19 kts | 323° |
| 2026-05-08 19:01 | 52.45961 | 9.68847 | 206 ft | 13 kts | 278° |
| 2026-05-08 19:02 | 52.45933 | 9.68749 | 199 ft | 1 kts | 232° |
| 2026-05-08 19:02 | 52.45930 | 9.68742 | 210 ft | 0 kts | 232° |